EGTE/EXT METAR and TAF weather

Enter ICAO airport designator
Station Type Date Time Source
EGTE METAR 2018/07/21 13:20 UTC NOAA

EGTE 211320Z VRB03KT 9999 SCT026 22/16 Q1015


Station Type Date Time Source
EGTE Decoded METAR 2018/07/21 13:20 UTC NOAA

Exeter Airport, United Kingdom (EGTE) 50-44N 003-25W
Jul 21, 2018 - 09:20 AM EDT / 2018.07.21 1320 UTC
Wind: Variable at 3 MPH (3 KT):0
Visibility: greater than 7 mile(s):0
Sky conditions: partly cloudy
Temperature: 71 F (22 C)
Dew Point: 60 F (16 C)
Relative Humidity: 68%
Pressure (altimeter): 29.97 in. Hg (1015 hPa)
ob: EGTE 211320Z VRB03KT 9999 SCT026 22/16 Q1015
cycle: 13

Station Type Date Time Source
EGTE TAF 2012/04/19 12:15 UTC NOAA

TAF TAF EGTE 191401Z 1912/1924 31016KT 9999 SCT030 SCT035 PROB40
TEMPO 1915/1918 7000 SHRA BKN014


Example: see airport list